Time;durP1;ratioP1;P1;durP2;ratioP2;P2;SDS_P1;SDS_P2;PMS_P1;PMS_P2;Temp;Humidity;BMP_temperature;BMP_pressure;BME280_temperature;BME280_humidity;BME280_pressure;Samples;Min_cycle;Max_cycle;Signal;HPM_P1;HPM_P2
2023/02/09 00:00:07;;;;;;;;;73.75;58.75;;;;;5.39;48.39;102749.84;5022464;28;45436;-72
2023/02/09 00:02:33;;;;;;;;;78.25;61.25;;;;;5.32;48.51;102738.22;5020982;28;45446;-72
2023/02/09 00:04:59;;;;;;;;;80.00;62.50;;;;;5.27;48.76;102741.66;5019532;28;47342;-72
2023/02/09 00:07:24;;;;;;;;;77.75;60.25;;;;;5.27;48.57;102741.66;5019390;28;45906;-72
2023/02/09 00:09:50;;;;;;;;;67.50;55.25;;;;;5.20;48.79;102744.16;5028511;28;45456;-72
2023/02/09 00:15:00;;;;;;;;;73.25;57.75;;;;;5.13;48.96;102726.34;5020895;28;45521;-72
2023/02/09 00:17:26;;;;;;;;;70.75;57.00;;;;;5.22;48.69;102740.66;5020723;28;45291;-72
2023/02/09 00:19:53;;;;;;;;;74.25;57.25;;;;;5.19;48.76;102733.53;5021107;28;45772;-72
2023/02/09 00:22:19;;;;;;;;;75.25;58.00;;;;;5.23;48.54;102745.06;5037353;28;45511;-72
2023/02/09 00:24:44;;;;;;;;;76.50;59.25;;;;;5.16;48.61;102739.66;5039215;28;47978;-72
2023/02/09 00:27:09;;;;;;;;;75.75;61.75;;;;;5.22;48.69;102748.59;5037854;28;45474;-72
2023/02/09 00:29:35;;;;;;;;;80.00;60.50;;;;;5.11;49.05;102730.72;5040635;28;45337;-72
2023/02/09 00:32:00;;;;;;;;;79.50;59.25;;;;;5.02;48.93;102714.63;5025053;28;45470;-72
2023/02/09 00:34:26;;;;;;;;;77.00;61.50;;;;;5.19;49.43;102752.06;5020117;28;45577;-72
2023/02/09 00:36:51;;;;;;;;;86.00;63.50;;;;;5.18;48.90;102745.88;5029704;28;45375;-72
2023/02/09 00:39:16;;;;;;;;;73.25;58.00;;;;;5.12;49.73;102729.84;5020777;28;45377;-72
2023/02/09 00:44:26;;;;;;;;;78.50;59.25;;;;;5.07;49.46;102730.63;5020199;28;45308;-72
2023/02/09 00:46:51;;;;;;;;;73.00;58.50;;;;;5.01;49.06;102718.13;5021283;28;45534;-72
2023/02/09 00:49:16;;;;;;;;;84.00;65.50;;;;;5.07;48.96;102733.28;5020435;28;45431;-72
2023/02/09 00:51:42;;;;;;;;;84.25;65.00;;;;;5.07;49.59;102730.63;5025282;28;45236;-72
2023/02/09 00:54:07;;;;;;;;;80.75;62.50;;;;;5.06;49.11;102737.69;5022523;28;45678;-72
2023/02/09 00:56:33;;;;;;;;;84.25;65.25;;;;;4.99;49.55;102726.06;5019877;28;45448;-72
2023/02/09 00:58:58;;;;;;;;;84.00;65.50;;;;;5.01;49.12;102736.66;5031817;28;45480;-72
2023/02/09 01:01:23;;;;;;;;;81.25;63.00;;;;;5.06;49.12;102744.69;5020006;28;45559;-72
2023/02/09 01:03:49;;;;;;;;;82.25;63.00;;;;;5.03;49.61;102741.97;5020079;28;45354;-72
2023/02/09 01:06:14;;;;;;;;;83.50;65.00;;;;;4.91;49.38;102727.63;5018706;28;45324;-72
2023/02/09 01:08:39;;;;;;;;;84.75;66.75;;;;;4.86;49.10;102725.72;5025250;28;45429;-72
2023/02/09 01:11:10;;;;;;;;;84.50;64.50;;;;;4.76;50.05;102717.59;5021841;28;45613;-72
2023/02/09 01:13:35;;;;;;;;;80.75;62.50;;;;;4.72;48.97;102696.31;5019833;28;45414;-72
2023/02/09 01:16:09;;;;;;;;;84.50;66.00;;;;;4.78;49.78;102710.56;5019771;28;45299;-72
2023/02/09 01:18:34;;;;;;;;;81.50;64.25;;;;;4.78;49.57;102723.81;5020186;28;45501;-72
2023/02/09 01:21:00;;;;;;;;;82.75;64.00;;;;;4.90;50.35;102743.47;5027326;28;45528;-72
2023/02/09 01:23:25;;;;;;;;;87.00;65.75;;;;;4.81;49.55;102734.47;5036053;28;47125;-72
2023/02/09 01:26:03;;;;;;;;;77.50;62.50;;;;;4.87;49.33;102743.41;5022836;28;45441;-72
2023/02/09 01:28:29;;;;;;;;;80.00;63.00;;;;;4.79;49.74;102741.47;5027888;28;46945;-72
2023/02/09 01:30:54;;;;;;;;;82.75;64.00;;;;;4.75;49.80;102733.41;5031206;28;45591;-72
2023/02/09 01:33:20;;;;;;;;;52.25;43.00;;;;;4.72;50.34;102730.69;5018250;28;46165;-72
2023/02/09 01:35:45;;;;;;;;;83.50;64.25;;;;;4.71;50.21;102743.03;5022222;28;45468;-72
2023/02/09 01:38:10;;;;;;;;;84.00;66.25;;;;;4.75;50.69;102749.31;5026677;28;45319;-72
2023/02/09 01:40:36;;;;;;;;;80.25;62.75;;;;;4.79;50.18;102756.44;5018294;28;46005;-72
2023/02/09 01:43:01;;;;;;;;;85.50;62.50;;;;;4.44;49.94;102701.84;5017891;28;48278;-72
2023/02/09 01:45:49;;;;;;;;;81.50;60.50;;;;;4.76;50.68;102754.63;5017224;28;45288;-72
2023/02/09 01:48:18;;;;;;;;;82.75;65.00;;;;;4.73;50.54;102757.19;5018054;28;45381;-72
2023/02/09 01:50:47;;;;;;;;;81.00;62.50;;;;;4.68;50.13;102745.63;5029248;28;45691;-72
2023/02/09 01:53:14;;;;;;;;;76.75;59.75;;;;;4.73;50.45;102751.91;5020260;28;47298;-72
2023/02/09 01:55:48;;;;;;;;;86.50;66.25;;;;;4.55;50.79;102723.25;5026411;28;45955;-73
2023/02/09 01:58:18;;;;;;;;;77.75;63.00;;;;;4.62;50.27;102746.34;5033716;28;47075;-72
2023/02/09 02:00:44;;;;;;;;;81.00;64.00;;;;;4.61;50.74;102738.38;5019480;28;45430;-72
2023/02/09 02:03:15;;;;;;;;;86.00;65.00;;;;;4.63;50.32;102742.84;5019001;28;46644;-72
2023/02/09 02:05:45;;;;;;;;;81.00;65.25;;;;;4.65;50.00;102745.53;5018029;28;45880;-72
2023/02/09 02:08:22;;;;;;;;;82.50;63.00;;;;;4.57;51.26;102733.88;5021596;28;45516;-72
2023/02/09 02:10:48;;;;;;;;;76.75;60.00;;;;;4.66;50.91;102754.34;5022912;28;45457;-72
2023/02/09 02:13:13;;;;;;;;;80.00;63.50;;;;;4.52;51.43;102730.22;5018917;28;45348;-72
2023/02/09 02:15:45;;;;;;;;;79.00;63.00;;;;;4.65;50.80;102764.06;5018913;28;45481;-72
2023/02/09 02:18:28;;;;;;;;;78.75;61.50;;;;;4.52;50.69;102741.69;5019256;28;45423;-72
2023/02/09 02:21:13;;;;;;;;;71.50;57.50;;;;;4.58;50.90;102754.19;5027033;28;45410;-72
2023/02/09 02:23:50;;;;;;;;;59.75;43.75;;;;;4.61;51.36;102759.53;5034674;28;47403;-72
2023/02/09 02:26:25;;;;;;;;;76.75;60.50;;;;;4.60;50.86;102763.03;5023848;28;45409;-72
2023/02/09 02:29:02;;;;;;;;;74.75;59.25;;;;;4.55;50.84;102752.34;5022823;28;45542;-72
2023/02/09 02:32:15;;;;;;;;;73.00;57.25;;;;;4.54;51.30;102757.59;5017473;28;45484;-72
2023/02/09 02:34:48;;;;;;;;;75.25;57.00;;;;;4.54;51.23;102760.25;4989520;28;45826;-72
2023/02/09 02:37:36;;;;;;;;;76.00;60.25;;;;;4.52;51.33;102756.66;4987811;28;45985;-72
2023/02/09 02:40:04;;;;;;;;;73.75;59.25;;;;;4.49;51.28;102754.81;5012788;28;45374;-72
2023/02/09 02:42:48;;;;;;;;;74.50;58.25;;;;;4.47;50.71;102747.72;5038458;28;45365;-72
2023/02/09 02:45:42;;;;;;;;;79.75;62.75;;;;;4.44;50.60;102754.75;5037151;28;47732;-72
2023/02/09 02:48:33;;;;;;;;;72.00;56.00;;;;;4.43;52.01;102747.66;5026691;28;45434;-72
2023/02/09 02:51:05;;;;;;;;;75.50;59.75;;;;;4.42;51.42;102745.84;5024977;28;45510;-72
2023/02/09 02:53:34;;;;;;;;;75.25;59.50;;;;;4.30;51.58;102723.50;5017333;28;45325;-72
2023/02/09 02:56:23;;;;;;;;;80.25;60.75;;;;;4.40;51.05;102744.91;5029648;28;46575;-72
2023/02/09 02:58:51;;;;;;;;;72.00;57.75;;;;;4.37;50.98;102747.47;5021401;28;46107;-72
2023/02/09 03:01:21;;;;;;;;;74.75;57.25;;;;;4.35;51.44;102743.91;5022104;28;45362;-72
2023/02/09 03:03:48;;;;;;;;;82.25;62.75;;;;;4.33;51.39;102750.91;5021990;28;45446;-72
2023/02/09 03:06:15;;;;;;;;;71.25;55.75;;;;;4.37;51.95;102747.47;5020419;28;47725;-72
2023/02/09 03:08:56;;;;;;;;;74.50;56.25;;;;;4.31;51.51;102742.06;5027944;28;45473;-72
2023/02/09 03:11:29;;;;;;;;;75.75;58.00;;;;;4.14;51.88;102711.63;5027393;28;45426;-72
2023/02/09 03:15:01;;;;;;;;;78.75;60.00;;;;;4.31;51.84;102733.22;5040324;28;45397;-72
2023/02/09 03:17:44;;;;;;;;;71.75;58.75;;;;;4.10;52.18;102696.56;4999329;28;45693;-71
2023/02/09 03:20:20;;;;;;;;;73.00;54.25;;;;;4.08;51.64;102701.81;5023998;28;45394;-72
2023/02/09 03:22:55;;;;;;;;;63.25;51.25;;;;;4.13;51.95;102721.31;5028222;28;45676;-72
2023/02/09 03:25:32;;;;;;;;;63.75;51.25;;;;;4.31;52.17;102747.34;5039704;28;45531;-72
2023/02/09 03:28:15;;;;;;;;;69.75;54.00;;;;;4.28;52.11;102741.97;5033821;28;47057;-72
2023/02/09 03:30:45;;;;;;;;;69.75;54.75;;;;;4.05;51.83;102701.72;5022228;28;45506;-72
2023/02/09 03:33:19;;;;;;;;;63.50;50.00;;;;;3.82;51.32;102664.13;5020486;28;45489;-72
2023/02/09 03:35:49;;;;;;;;;69.00;55.00;;;;;4.03;51.45;102701.69;5023590;28;45686;-72
2023/02/09 03:38:14;;;;;;;;;69.00;53.75;;;;;4.03;51.96;102709.63;5026161;28;47437;-72
2023/02/09 03:40:40;;;;;;;;;66.75;52.00;;;;;4.18;52.59;102735.56;5020020;28;45377;-72
2023/02/09 03:43:05;;;;;;;;;70.00;55.00;;;;;4.04;52.73;102702.56;5019787;28;45434;-72
2023/02/09 03:45:31;;;;;;;;;68.00;53.75;;;;;3.98;51.83;102700.66;5021471;28;45309;-72
2023/02/09 03:47:56;;;;;;;;;72.75;56.75;;;;;4.08;51.92;102730.88;5021045;28;45484;-72
2023/02/09 03:50:22;;;;;;;;;70.25;55.25;;;;;3.95;52.15;102689.13;5023805;28;45366;-72
2023/02/09 03:52:50;;;;;;;;;69.50;54.75;;;;;4.05;51.42;102713.19;5027444;28;45383;-72
2023/02/09 03:55:15;;;;;;;;;66.00;52.50;;;;;3.98;51.88;102710.34;5035604;28;45563;-72
2023/02/09 03:57:41;;;;;;;;;61.75;50.00;;;;;3.97;51.52;102714.72;5038101;28;47215;-73
2023/02/09 04:00:07;;;;;;;;;69.75;56.00;;;;;3.99;52.17;102715.69;5030908;28;45441;-72
2023/02/09 04:02:33;;;;;;;;;61.75;51.25;;;;;3.84;52.11;102678.25;5019687;28;45281;-72
2023/02/09 04:04:58;;;;;;;;;66.50;52.00;;;;;3.70;51.90;102668.22;5029734;28;45365;-72
2023/02/09 04:07:24;;;;;;;;;67.25;53.50;;;;;3.94;51.75;102708.47;5018798;28;47703;-72
2023/02/09 04:09:50;;;;;;;;;65.00;54.75;;;;;3.95;52.54;102721.72;5028129;28;45784;-72
2023/02/09 04:12:15;;;;;;;;;61.00;50.00;;;;;3.82;52.44;102699.34;5020608;28;45318;-71
2023/02/09 04:14:43;;;;;;;;;64.75;53.50;;;;;4.04;52.31;102743.13;5027866;28;45352;-71
2023/02/09 04:17:09;;;;;;;;;64.00;52.25;;;;;4.00;52.41;102737.72;5025574;28;45556;-71
2023/02/09 04:19:34;;;;;;;;;62.50;49.75;;;;;3.89;51.79;102725.09;5019493;28;45487;-73
2023/02/09 04:22:10;;;;;;;;;60.00;44.75;;;;;4.02;52.09;102746.56;5023345;28;45381;-71
2023/02/09 04:24:35;;;;;;;;;63.00;52.75;;;;;3.80;52.42;102711.63;5019435;28;45498;-71
2023/02/09 04:27:01;;;;;;;;;54.75;41.75;;;;;4.05;52.74;102749.28;5034296;28;45565;-71
2023/02/09 04:29:28;;;;;;;;;62.00;49.50;;;;;3.90;52.46;102721.59;5030274;28;45392;-71
2023/02/09 04:31:54;;;;;;;;;59.75;49.00;;;;;3.87;52.67;102716.22;5024077;28;45584;-71
2023/02/09 04:34:22;;;;;;;;;61.25;48.00;;;;;3.87;53.14;102715.34;5024235;28;45438;-71
2023/02/09 04:36:48;;;;;;;;;64.25;50.25;;;;;3.84;52.67;102718.81;5033919;28;45811;-72
2023/02/09 04:39:14;;;;;;;;;61.25;52.00;;;;;3.82;52.78;102714.31;5019059;28;45396;-71
2023/02/09 04:41:39;;;;;;;;;69.25;56.50;;;;;3.77;52.63;102703.63;5019059;28;45396;-71
2023/02/09 04:44:05;;;;;;;;;66.75;53.50;;;;;3.89;52.73;102703.97;5019039;28;45576;-71
2023/02/09 04:46:31;;;;;;;;;83.25;64.50;;;;;4.01;52.40;102719.25;5018771;28;47004;-71
2023/02/09 04:48:56;;;;;;;;;80.75;64.50;;;;;4.05;52.65;102712.28;5021995;28;45335;-71
2023/02/09 04:51:22;;;;;;;;;85.25;68.75;;;;;3.95;52.17;102689.13;5023555;28;45375;-71
2023/02/09 04:53:50;;;;;;;;;85.75;69.00;;;;;4.00;52.49;102691.03;5020340;28;45963;-71
2023/02/09 04:56:16;;;;;;;;;90.75;71.00;;;;;4.04;52.78;102697.28;5019957;28;45566;-71
2023/02/09 05:01:28;;;;;;;;;89.75;70.75;;;;;4.13;52.38;102707.22;5020141;28;45394;-71
2023/02/09 05:04:01;;;;;;;;;88.25;65.00;;;;;4.02;51.99;102678.75;5018813;28;45560;-71
2023/02/09 05:06:29;;;;;;;;;78.25;61.25;;;;;3.97;52.32;102671.56;5054098;28;47311;-71
2023/02/09 05:09:03;;;;;;;;;82.50;64.75;;;;;4.28;52.46;102715.53;5033265;28;46197;-71
2023/02/09 05:11:29;;;;;;;;;87.00;67.00;;;;;4.24;51.76;102703.06;5026365;28;45458;-71
2023/02/09 05:13:57;;;;;;;;;81.50;65.25;;;;;4.33;52.21;102708.63;5023919;28;45458;-72
2023/02/09 05:16:23;;;;;;;;;88.50;69.00;;;;;4.02;52.12;102652.31;5018495;28;47276;-71
2023/02/09 05:18:49;;;;;;;;;90.00;68.75;;;;;4.04;51.81;102677.06;5018342;28;45316;-71
2023/02/09 05:21:15;;;;;;;;;88.00;68.50;;;;;4.13;52.16;102704.56;5023158;28;45450;-71
2023/02/09 05:23:41;;;;;;;;;87.75;68.50;;;;;4.22;51.68;102726.81;5031499;28;45328;-71
2023/02/09 05:26:06;;;;;;;;;86.50;67.75;;;;;4.40;52.04;102773.13;5029429;28;46619;-71
2023/02/09 05:28:34;;;;;;;;;87.50;67.50;;;;;4.24;51.92;102748.03;5033226;28;45381;-71
2023/02/09 05:31:00;;;;;;;;;76.00;59.25;;;;;4.05;51.62;102734.31;5019804;28;45373;-72
2023/02/09 05:33:25;;;;;;;;;86.25;66.75;;;;;4.22;52.03;102761.19;5018291;28;45519;-71
2023/02/09 05:35:52;;;;;;;;;83.50;63.00;;;;;4.13;52.32;102760.09;5021462;28;46914;-71
2023/02/09 05:38:18;;;;;;;;;78.25;61.25;;;;;3.99;52.18;102733.25;5023899;28;46091;-71
2023/02/09 05:40:46;;;;;;;;;74.75;59.00;;;;;4.13;52.47;102766.25;5018436;28;45359;-71
2023/02/09 05:43:12;;;;;;;;;75.00;59.00;;;;;3.88;52.23;102717.13;5019414;28;45391;-71
2023/02/09 05:45:37;;;;;;;;;68.50;56.00;;;;;4.24;52.24;102782.38;5030291;28;47118;-71
2023/02/09 05:48:10;;;;;;;;;73.75;57.00;;;;;3.97;52.13;102735.88;5032006;28;45646;-71
2023/02/09 05:50:36;;;;;;;;;68.75;55.00;;;;;4.03;52.16;102757.19;5019544;28;45378;-71
2023/02/09 05:53:04;;;;;;;;;65.25;50.25;;;;;4.21;52.30;102783.22;5019254;28;45335;-71
2023/02/09 05:55:29;;;;;;;;;69.00;57.25;;;;;4.13;52.51;102768.91;5026063;28;46882;-71
2023/02/09 05:57:55;;;;;;;;;68.25;51.50;;;;;4.13;52.05;102778.59;5034287;28;45420;-71
2023/02/09 06:00:22;;;;;;;;;69.25;55.00;;;;;3.95;52.50;102742.88;5018066;28;45423;-71
2023/02/09 06:02:51;;;;;;;;;59.00;47.00;;;;;3.94;52.16;102751.63;5017638;28;45449;-71
2023/02/09 06:05:19;;;;;;;;;62.25;49.75;;;;;4.00;52.29;102757.09;5017816;28;47948;-71
2023/02/09 06:07:45;;;;;;;;;50.25;44.00;;;;;3.96;53.07;102743.75;5018821;28;45849;-71
2023/02/09 06:10:13;;;;;;;;;63.50;51.25;;;;;3.94;51.89;102754.28;5026486;28;45606;-71
2023/02/09 06:12:38;;;;;;;;;59.00;48.25;;;;;3.83;52.35;102742.53;5019366;28;45535;-71
2023/02/09 06:15:14;;;;;;;;;;;;;;;;;;;;;
2023/02/09 06:17:41;;;;;;;;;64.50;50.25;;;;;3.81;53.01;102738.94;5017766;28;72895;-71
2023/02/09 06:20:07;;;;;;;;;65.00;51.25;;;;;3.85;52.24;102752.28;5019749;28;45371;-71
2023/02/09 06:22:33;;;;;;;;;65.00;51.50;;;;;4.07;52.75;102796.03;5022061;28;45432;-71
2023/02/09 06:24:59;;;;;;;;;63.75;52.00;;;;;3.92;52.63;102769.19;5034384;28;46225;-71
2023/02/09 06:27:24;;;;;;;;;69.00;54.25;;;;;3.87;52.76;102766.41;5030951;28;45633;-71
2023/02/09 06:29:52;;;;;;;;;70.25;55.25;;;;;3.94;53.04;102766.59;5026837;28;45588;-71
2023/02/09 06:32:18;;;;;;;;;67.25;53.00;;;;;3.81;51.79;102749.50;5018117;28;45520;-72
2023/02/09 06:34:43;;;;;;;;;68.50;55.50;;;;;3.76;52.27;102767.91;5018550;28;46263;-71
2023/02/09 06:37:09;;;;;;;;;65.75;50.75;;;;;3.99;52.53;102824.03;5031653;28;45297;-71
2023/02/09 06:39:34;;;;;;;;;61.00;50.75;;;;;3.74;51.86;102768.69;5023591;28;45523;-71
2023/02/09 06:42:00;;;;;;;;;64.75;54.00;;;;;3.76;52.32;102777.53;5018567;28;45374;-71
2023/02/09 06:44:29;;;;;;;;;71.75;56.00;;;;;3.89;52.29;102806.09;5027170;28;48068;-71
2023/02/09 06:46:56;;;;;;;;;72.50;58.00;;;;;3.88;51.54;102809.63;5034788;28;45926;-71
2023/02/09 07:11:54;;;;;;;;;64.00;50.50;;;;;3.67;51.37;102837.19;5274722;22;45876;-70
2023/02/09 07:14:19;;;;;;;;;68.50;51.75;;;;;3.69;51.89;102846.06;5056818;28;45511;-70
2023/02/09 07:16:44;;;;;;;;;34.25;21.25;;;;;3.52;51.90;102811.22;5051911;28;45459;-70
2023/02/09 07:19:10;;;;;;;;;64.00;52.50;;;;;3.51;51.65;102821.75;5020031;28;46094;-70
2023/02/09 07:21:35;;;;;;;;;65.50;53.75;;;;;3.61;51.92;102842.28;5037955;28;45545;-70
2023/02/09 07:24:01;;;;;;;;;67.75;52.75;;;;;3.47;51.40;102814.56;5019919;28;45570;-70
2023/02/09 07:26:26;;;;;;;;;66.50;52.50;;;;;3.54;51.46;102835.00;5017951;28;47121;-69
2023/02/09 07:28:52;;;;;;;;;67.00;52.25;;;;;3.28;52.17;102795.53;5029640;28;45710;-69
2023/02/09 07:31:17;;;;;;;;;68.50;53.50;;;;;3.46;52.21;102826.00;5037056;28;45448;-69
2023/02/09 07:33:43;;;;;;;;;68.75;55.25;;;;;3.46;51.78;102834.81;5033893;28;45513;-70
2023/02/09 07:36:10;;;;;;;;;61.50;52.00;;;;;3.46;52.46;102832.16;5036763;28;45460;-70
2023/02/09 07:38:36;;;;;;;;;67.50;54.00;;;;;3.34;51.63;102819.50;5036697;28;45809;-70
2023/02/09 07:41:04;;;;;;;;;62.25;48.50;;;;;3.45;52.29;102834.75;5035888;28;45702;-71
2023/02/09 07:43:29;;;;;;;;;66.75;52.25;;;;;3.48;51.71;102843.66;5001689;28;45826;-71
2023/02/09 07:45:59;;;;;;;;;62.50;49.50;;;;;3.34;52.25;102818.56;5041142;28;45471;-71
2023/02/09 07:48:24;;;;;;;;;72.00;53.50;;;;;3.53;52.37;102851.72;5039125;28;45535;-72
2023/02/09 07:50:50;;;;;;;;;60.75;48.75;;;;;3.41;52.41;102833.78;5038592;28;45451;-72
2023/02/09 07:53:16;;;;;;;;;69.75;56.00;;;;;3.28;52.40;102819.28;5030179;28;45371;-72
2023/02/09 07:55:41;;;;;;;;;63.75;50.75;;;;;3.52;51.98;102878.97;5040910;28;45639;-72
2023/02/09 07:58:07;;;;;;;;;69.00;56.00;;;;;3.32;52.26;102851.94;5021746;28;45906;-72
2023/02/09 08:00:32;;;;;;;;;66.00;52.75;;;;;3.55;52.66;102894.03;5022058;28;45487;-72
2023/02/09 08:02:59;;;;;;;;;68.00;56.50;;;;;3.36;52.60;102864.41;5017184;28;45483;-71
2023/02/09 08:05:36;;;;;;;;;67.50;52.25;;;;;3.43;52.39;102878.72;5021351;28;47359;-72
2023/02/09 08:08:01;;;;;;;;;67.50;53.25;;;;;3.53;52.52;102900.16;5019118;28;46083;-71
2023/02/09 08:10:27;;;;;;;;;68.50;55.50;;;;;3.57;52.78;102908.19;5034703;28;45356;-71
2023/02/09 08:13:02;;;;;;;;;69.00;52.50;;;;;3.55;52.42;102908.13;5038166;28;45498;-71
2023/02/09 08:15:37;;;;;;;;;77.00;58.00;;;;;3.50;52.04;102897.41;5022281;28;46969;-71
2023/02/09 08:18:15;;;;;;;;;64.25;49.50;;;;;3.51;52.95;102908.91;5021460;28;45323;-71
2023/02/09 08:20:42;;;;;;;;;67.50;54.00;;;;;3.53;52.84;102920.38;5014518;28;45583;-71
2023/02/09 08:23:29;;;;;;;;;65.25;55.25;;;;;3.51;52.87;102924.75;5019723;28;45522;-71
2023/02/09 08:25:56;;;;;;;;;72.50;57.25;;;;;3.45;52.43;102906.94;5037866;28;46290;-71
2023/02/09 08:28:22;;;;;;;;;68.25;54.00;;;;;3.56;52.22;102927.50;5039396;28;45872;-71
2023/02/09 08:30:48;;;;;;;;;66.50;51.25;;;;;3.58;52.11;102937.28;5040325;28;45561;-71
2023/02/09 08:33:14;;;;;;;;;67.25;52.50;;;;;3.30;52.35;102894.13;5038031;28;45436;-71
2023/02/09 08:35:41;;;;;;;;;72.50;56.25;;;;;3.61;52.92;102945.31;5039428;28;45423;-71
2023/02/09 08:38:06;;;;;;;;;71.50;56.25;;;;;3.59;52.50;102939.09;5034261;28;45533;-71
2023/02/09 08:40:35;;;;;;;;;69.50;52.00;;;;;3.46;52.40;102923.69;5020268;28;45404;-71
2023/02/09 08:43:00;;;;;;;;;71.75;58.00;;;;;3.63;52.50;102955.91;5020066;28;46044;-70
2023/02/09 08:45:26;;;;;;;;;76.00;58.75;;;;;3.52;52.23;102930.06;5040630;28;46998;-70
2023/02/09 08:47:51;;;;;;;;;68.75;54.25;;;;;3.55;52.10;102937.16;5038277;28;45503;-70
2023/02/09 08:50:17;;;;;;;;;71.25;55.50;;;;;3.50;52.35;102939.66;5038340;28;45347;-70
2023/02/09 08:52:42;;;;;;;;;82.50;62.25;;;;;3.53;52.17;102945.03;5039891;28;45649;-70
2023/02/09 08:55:08;;;;;;;;;71.50;57.25;;;;;3.42;52.89;102916.50;5038273;28;46423;-71
2023/02/09 08:57:33;;;;;;;;;71.00;56.00;;;;;3.59;52.35;102948.72;5039662;28;45303;-71
2023/02/09 08:59:59;;;;;;;;;69.75;55.00;;;;;3.68;52.51;102967.53;5038743;28;45539;-71
2023/02/09 09:02:24;;;;;;;;;67.00;54.00;;;;;3.57;52.59;102942.50;5038955;28;45316;-71
2023/02/09 09:04:49;;;;;;;;;74.00;58.75;;;;;3.65;52.46;102955.09;5037827;28;46083;-71
2023/02/09 09:07:15;;;;;;;;;77.75;57.75;;;;;3.77;52.52;102958.97;5039222;28;45563;-71
2023/02/09 09:09:40;;;;;;;;;74.75;54.75;;;;;3.80;52.69;102969.66;5030117;28;45369;-70
2023/02/09 09:12:06;;;;;;;;;75.25;57.75;;;;;3.80;52.58;102982.88;5039412;28;45249;-70
2023/02/09 09:14:31;;;;;;;;;69.25;55.25;;;;;3.71;52.18;102965.88;5039516;28;46604;-70
2023/02/09 09:16:57;;;;;;;;;72.00;56.00;;;;;3.76;52.14;102962.47;5039712;28;45406;-70
2023/02/09 09:19:24;;;;;;;;;69.00;52.75;;;;;3.76;52.75;102960.75;5039495;28;45395;-70
2023/02/09 09:21:49;;;;;;;;;74.50;54.75;;;;;3.90;52.81;102984.94;5017872;28;45492;-71
2023/02/09 09:24:15;;;;;;;;;64.50;53.25;;;;;3.89;52.52;102983.13;5039263;28;46085;-71
2023/02/09 09:26:41;;;;;;;;;65.25;52.00;;;;;3.92;52.16;102977.06;5037778;28;45482;-71
2023/02/09 09:29:07;;;;;;;;;68.25;54.50;;;;;3.95;52.77;102971.88;5038293;28;45345;-70
2023/02/09 09:31:33;;;;;;;;;69.75;53.00;;;;;4.10;52.00;102990.84;5020887;28;45569;-71
2023/02/09 09:33:58;;;;;;;;;66.50;53.75;;;;;4.05;51.68;102972.19;5021065;28;48259;-70
2023/02/09 09:36:24;;;;;;;;;67.25;52.25;;;;;3.99;52.27;102964.09;5020626;28;45400;-71
2023/02/09 09:38:49;;;;;;;;;67.50;54.25;;;;;4.16;51.72;102984.81;5035260;28;45564;-71
2023/02/09 09:41:30;;;;;;;;;61.50;50.50;;;;;4.18;52.49;102975.22;5020008;28;45728;-71
2023/02/09 09:43:56;;;;;;;;;69.50;54.75;;;;;4.29;52.11;102987.00;5019489;28;47735;-71
2023/02/09 09:46:31;;;;;;;;;60.75;49.75;;;;;4.35;51.81;102981.88;5020160;28;45968;-71
2023/02/09 09:48:58;;;;;;;;;65.00;50.50;;;;;4.22;51.87;102943.59;5036746;28;45609;-71
2023/02/09 09:51:40;;;;;;;;;63.50;49.00;;;;;4.46;52.12;102976.94;5038753;28;45333;-71
2023/02/09 09:54:17;;;;;;;;;56.75;45.00;;;;;4.51;51.75;102977.97;5037981;28;45729;-71
2023/02/09 09:56:42;;;;;;;;;55.00;47.75;;;;;4.55;51.71;102973.66;5033824;28;45368;-71
2023/02/09 09:59:16;;;;;;;;;62.00;47.75;;;;;4.59;50.87;102968.50;5038806;28;45307;-70
2023/02/09 10:01:42;;;;;;;;;59.25;46.50;;;;;4.60;50.84;102969.38;5020967;28;45577;-71
2023/02/09 10:04:14;;;;;;;;;62.25;47.75;;;;;4.62;51.25;102950.03;5020832;28;45381;-70
2023/02/09 10:06:42;;;;;;;;;56.25;44.25;;;;;4.76;51.87;102963.66;5038215;28;45483;-65
2023/02/09 10:09:23;;;;;;;;;55.75;45.50;;;;;4.75;51.50;102953.03;5015462;28;46266;-66
2023/02/09 10:12:00;;;;;;;;;62.25;48.00;;;;;4.93;51.05;102971.16;5038788;28;45407;-71
2023/02/09 10:14:26;;;;;;;;;55.50;46.25;;;;;4.93;51.64;102952.63;5037505;28;46613;-71
2023/02/09 10:16:51;;;;;;;;;63.00;44.50;;;;;4.97;51.37;102941.25;5038858;28;45340;-71
2023/02/09 10:19:26;;;;;;;;;68.00;50.75;;;;;5.04;51.20;102947.59;5038866;28;45406;-71
2023/02/09 10:21:53;;;;;;;;;59.50;47.50;;;;;5.19;51.02;102964.81;5035379;28;45313;-71
2023/02/09 10:24:31;;;;;;;;;57.00;45.25;;;;;5.27;51.11;102957.03;5038059;28;45370;-71
2023/02/09 10:27:06;;;;;;;;;53.00;43.25;;;;;5.33;50.76;102978.38;5038371;28;46001;-71
2023/02/09 10:29:32;;;;;;;;;55.25;44.00;;;;;5.36;51.12;102978.47;5038630;28;45423;-71
2023/02/09 10:32:10;;;;;;;;;50.25;42.00;;;;;5.42;51.06;102980.34;5038743;28;46074;-71
2023/02/09 10:34:39;;;;;;;;;50.50;42.25;;;;;5.46;50.54;102974.25;5038536;28;45690;-71
2023/02/09 10:37:32;;;;;;;;;44.50;39.50;;;;;5.53;50.70;102983.25;5038409;28;45469;-71
2023/02/09 10:40:21;;;;;;;;;54.50;44.50;;;;;5.60;50.80;102964.03;5028738;28;45723;-71
2023/02/09 10:42:55;;;;;;;;;47.00;41.00;;;;;5.68;50.33;102975.69;5000687;28;46052;-71
2023/02/09 10:45:25;;;;;;;;;55.25;45.00;;;;;5.73;50.00;102965.19;5039166;28;47406;-71
2023/02/09 10:48:14;;;;;;;;;51.25;41.25;;;;;5.71;50.61;102956.31;5020508;28;45348;-71
2023/02/09 10:50:50;;;;;;;;;48.25;41.75;;;;;5.87;49.96;102974.34;5020591;28;45369;-71
2023/02/09 10:53:37;;;;;;;;;54.50;42.25;;;;;5.88;50.20;102967.28;5037886;28;46005;-71
2023/02/09 10:56:13;;;;;;;;;53.25;42.25;;;;;5.80;49.82;102943.28;5036386;28;45570;-71
2023/02/09 10:58:39;;;;;;;;;45.50;40.00;;;;;5.99;49.73;102971.13;5037923;28;45441;-71
2023/02/09 11:01:10;;;;;;;;;36.25;26.75;;;;;6.04;49.82;102966.81;5038419;28;45469;-71
2023/02/09 11:03:44;;;;;;;;;48.50;38.25;;;;;5.97;50.25;102951.63;5037257;28;45514;-71
2023/02/09 11:06:16;;;;;;;;;57.50;46.75;;;;;6.11;49.76;102966.09;5037905;28;45531;-64
2023/02/09 11:09:00;;;;;;;;;66.75;54.00;;;;;6.19;49.78;102965.38;5027205;28;45928;-64
2023/02/09 11:11:32;;;;;;;;;67.25;56.00;;;;;6.24;49.70;102961.94;5038180;28;45320;-69
2023/02/09 11:13:59;;;;;;;;;63.25;50.50;;;;;6.23;49.97;102938.97;5037703;28;45532;-68
2023/02/09 11:16:43;;;;;;;;;72.50;56.50;;;;;6.36;49.81;102960.41;5019249;28;47248;-69
2023/02/09 11:19:27;;;;;;;;;79.25;62.00;;;;;6.38;49.71;102948.06;5022797;28;45497;-69
2023/02/09 11:22:04;;;;;;;;;81.50;63.00;;;;;6.41;49.34;102945.47;5038321;28;45615;-69
2023/02/09 11:24:43;;;;;;;;;83.25;66.00;;;;;6.41;49.36;102945.47;5036141;28;46094;-71
2023/02/09 11:27:25;;;;;;;;;81.75;64.75;;;;;6.51;49.63;102955.41;5040802;28;46248;-71
2023/02/09 11:30:16;;;;;;;;;84.00;65.00;;;;;6.58;49.49;102956.44;5040978;28;45492;-71
2023/02/09 11:32:55;;;;;;;;;85.50;65.25;;;;;6.63;49.96;102944.13;5023492;28;45552;-71
2023/02/09 11:35:39;;;;;;;;;82.25;65.00;;;;;6.61;49.15;102933.50;5041433;28;45332;-71
2023/02/09 11:38:12;;;;;;;;;77.75;59.50;;;;;6.66;50.08;102934.47;5037278;28;45548;-72
2023/02/09 11:40:46;;;;;;;;;73.25;59.00;;;;;6.75;49.62;102943.47;5023162;28;46151;-71
2023/02/09 11:43:26;;;;;;;;;78.00;61.25;;;;;6.81;49.42;102935.63;5041165;28;45436;-71
2023/02/09 11:45:58;;;;;;;;;67.75;53.75;;;;;6.83;49.62;102942.78;5041049;28;45358;-71
2023/02/09 11:48:36;;;;;;;;;70.25;53.50;;;;;6.89;49.20;102931.38;5040974;28;46449;-71
2023/02/09 11:51:10;;;;;;;;;59.25;45.25;;;;;6.95;49.05;102930.56;5031683;28;45643;-71
2023/02/09 11:53:52;;;;;;;;;47.75;43.25;;;;;6.95;48.86;102915.56;5022121;28;45400;-71
2023/02/09 11:56:26;;;;;;;;;50.25;42.00;;;;;7.00;48.71;102928.88;5021050;28;46259;-71
2023/02/09 11:59:36;;;;;;;;;54.50;44.00;;;;;7.09;48.07;102942.34;5039199;28;45549;-71
2023/02/09 12:02:20;;;;;;;;;49.75;42.00;;;;;7.16;47.95;102932.72;5022145;28;45379;-71